Record high temperature 40.0°C Record low temperature -11.4°C Record high gust 72 mph Record high average 165.7 mph Record daily rain 55.1 mm Record low windchill -8.3°C Record high barometer 1043.1 hPa Record low barometer 965.2 hPa
Daily high pressure 1000.0 mb Daily low pressure 997.5 mb Daily low windchill 8.4°C Daily high heat index 12.6°C Daily high gust speed 19.6 mph S Daily high average speed 14.1 mph SSE
Forecast: mostly cloudy and cooler. precipitation possible within 12 hours, possibly heavy at times. windy.
Weather Data from the Isle of Wight Weather Centre
LAST READING AT TIME: 20:38 DATE: 15 November 2014, time of next update: 20:39
Current WeatherNight time/Dry Current Temperature 11.1°C (52.0°F), Apparent temp 8.6°C
Maximum Temperature (since midnight)12.6°C at: 00:04 Minimum Temperature (since midnight)9.6°C at: 07:38
Average windspeed (ten minute)6.8 mph Wind Direction (ten minute)SE (135°)
Windchill Temperature 11.1°C Maximum Gust (last hour)14 mph at: 20:18
Maximum Gust (since midnight)20 mph at: 00:44 Maximum 1 minute average (since midnight)14.1 mph at: 00:34
Rainfall (last hour)0.0 mm Rainfall (since midnight)1.2 mm (0.05 in.)---
Rainfall This month 81.9 mm (3.22 in.) Rainfall To date this year 859.6 mm (33.84 in.)
Maximum rain per minute (last hour)0.0 mm/min Maximum rain per hour (last 6 hours)1.2 mm/hour
Yesterdays rainfall 4.2 mm DewPoint 9.0°C (Wet Bulb :10.1°C )
Humidity 87 %, Humidex 12.0°C Barometer corrected to msl997.8 mb
Pressure change -0.4 mb (last hour) Trend (last hour)STEADY
Pressure change (last 12 hours)-2.0 mb Pressure change (last 6 hours)-0.2 mb

This page is updated from recent data collected by a DAVIS VANTAGE PRO weather station Use the Reload or Refresh facility on your browser to retrieve the latest data.

Status report of weather station: Wroxall Weather


Click here for the last 24 hour graph
Click here for the last 48 hour graph
Click here for the last 72 hour graph
Click here for the month to date graph
Click here to listen to the current weather conditions


Weather report/Warning/Metars

Southampton / Weather Centre, United Kingdom (EGHI) 50-54N 001-24W 0M
Nov 15, 2014 - 03:20 PM EST / 2014.11.15 2020 UTC
Wind: Calm:0
Visibility: 5 mile(s):0
Sky conditions: mostly cloudy
Weather: light rain showers
Temperature: 46 F (8 C)
Dew Point: 44 F (7 C)
Relative Humidity: 93%
Pressure (altimeter): 29.47 in. Hg (0998 hPa)
ob: EGHI 152020Z 00000KT 9000 -SHRA FEW015 SCT030 BKN044 08/07 Q0998 
cycle: 20
Bournemouth Airport, United Kingdom (EGHH) 50-47N 001-50W 0M
Nov 15, 2014 - 03:20 PM EST / 2014.11.15 2020 UTC
Wind: from the E (100 degrees) at 8 MPH (7 KT):0
Visibility: 4 mile(s):0
Sky conditions: mostly cloudy
Temperature: 50 F (10 C)
Dew Point: 48 F (9 C)
Relative Humidity: 93%
Pressure (altimeter): 29.44 in. Hg (0997 hPa)
ob: EGHH 152020Z 10007KT 7000 FEW015 BKN049 10/09 Q0997
cycle: 20
Stansted Airport, United Kingdom (EGSS) 51-53N 000-14E 0M
Nov 15, 2014 - 03:20 PM EST / 2014.11.15 2020 UTC
Wind: from the SSE (150 degrees) at 5 MPH (4 KT):0
Visibility: less than 1 mile:0
Sky conditions: overcast
Weather: fog
Temperature: 46 F (8 C)
Dew Point: 46 F (8 C)
Relative Humidity: 100%
Pressure (altimeter): 29.50 in. Hg (0999 hPa)
ob: EGSS 152020Z 15004KT 0200 R22/0325 FG OVC001 08/08 Q0999
cycle: 20
Luton Airport , United Kingdom (EGGW) 51-52N 000-22W
Nov 15, 2014 - 02:50 PM EST / 2014.11.15 1950 UTC
Wind: from the SE (140 degrees) at 3 MPH (3 KT):0
Visibility: 1 mile(s):0
Sky conditions: mostly cloudy
Weather: mist
Temperature: 48 F (9 C)
Dew Point: 48 F (9 C)
Relative Humidity: 100%
Pressure (altimeter): 29.50 in. Hg (0999 hPa)
ob: EGGW 151950Z 14003KT 2000 BR BKN002 BKN026 09/09 Q0999
cycle: 20
London / Gatwick Airport, United Kingdom (EGKK) 51-09N 000-11W 0M
Nov 15, 2014 - 03:20 PM EST / 2014.11.15 2020 UTC
Wind: from the E (100 degrees) at 3 MPH (3 KT):0
Visibility: 4 mile(s):0
Sky conditions: partly cloudy
Temperature: 46 F (8 C)
Dew Point: 46 F (8 C)
Relative Humidity: 100%
Pressure (altimeter): 29.47 in. Hg (0998 hPa)
ob: EGKK 152020Z 10003KT 7000 FEW016 SCT042 08/08 Q0998
cycle: 20